createdAt,value
2023-01-04T00:01:20.668Z,15.77
2023-01-04T00:03:47.362Z,14.75
2023-01-04T00:06:15.157Z,16.05
2023-01-04T00:08:41.611Z,14.23
2023-01-04T00:11:10.446Z,15.65
2023-01-04T00:13:36.956Z,13.95
2023-01-04T00:16:08.109Z,15.25
2023-01-04T00:18:35.990Z,12.85
2023-01-04T00:21:13.347Z,12.93
2023-01-04T00:23:40.562Z,11.73
2023-01-04T00:26:08.335Z,11.60
2023-01-04T00:28:34.779Z,11.80
2023-01-04T00:31:08.101Z,10.77
2023-01-04T00:33:34.838Z,8.45
2023-01-04T00:36:09.504Z,7.18
2023-01-04T00:38:36.664Z,7.07
2023-01-04T00:41:03.845Z,8.02
2023-01-04T00:43:30.245Z,6.60
2023-01-04T00:45:56.771Z,16.65
2023-01-04T00:48:23.447Z,14.95
2023-01-04T00:50:50.375Z,20.17
2023-01-04T00:53:17.326Z,21.20
2023-01-04T00:55:44.107Z,21.25
2023-01-04T00:58:10.632Z,20.75
2023-01-04T01:00:37.501Z,19.30
2023-01-04T01:03:04.827Z,21.25
2023-01-04T01:05:32.829Z,20.98
2023-01-04T01:07:59.277Z,20.70
2023-01-04T01:10:25.775Z,18.17
2023-01-04T01:12:52.176Z,13.00
2023-01-04T01:15:18.642Z,12.23
2023-01-04T01:17:45.069Z,8.15
2023-01-04T01:20:11.500Z,6.25
2023-01-04T01:22:37.960Z,5.93
2023-01-04T01:25:04.657Z,4.57
2023-01-04T01:27:31.127Z,4.03
2023-01-04T01:29:57.533Z,3.28
2023-01-04T01:32:24.005Z,2.80
2023-01-04T01:34:50.492Z,4.22
2023-01-04T01:37:16.991Z,3.10
2023-01-04T01:39:43.396Z,2.60
2023-01-04T01:42:17.923Z,3.75
2023-01-04T01:44:45.084Z,2.67
2023-01-04T01:47:17.503Z,2.22
2023-01-04T01:49:45.468Z,2.15
2023-01-04T01:52:14.508Z,2.42
2023-01-04T01:54:49.488Z,2.13
2023-01-04T01:57:17.503Z,2.10
2023-01-04T01:59:45.869Z,1.67
2023-01-04T02:02:12.391Z,3.13
2023-01-04T02:04:40.648Z,3.30
2023-01-04T02:07:07.785Z,3.20
2023-01-04T02:09:34.280Z,4.43
2023-01-04T02:12:00.978Z,2.40
2023-01-04T02:14:27.482Z,2.63
2023-01-04T02:17:04.331Z,2.40
2023-01-04T02:19:56.768Z,2.50
2023-01-04T02:22:29.219Z,2.85
2023-01-04T02:25:07.663Z,3.28
2023-01-04T02:27:44.395Z,2.13
2023-01-04T02:30:29.718Z,2.17
2023-01-04T02:32:58.932Z,2.50
2023-01-04T02:35:30.864Z,1.52
2023-01-04T02:38:00.475Z,2.78
2023-01-04T02:40:26.886Z,2.17
2023-01-04T02:43:31.025Z,3.03
2023-01-04T02:46:19.437Z,9.27
2023-01-04T02:49:04.729Z,7.53
2023-01-04T02:51:35.398Z,6.38
2023-01-04T02:54:04.660Z,4.90
2023-01-04T02:56:49.496Z,5.65
2023-01-04T02:59:21.852Z,5.32
2023-01-04T03:02:10.126Z,5.35
2023-01-04T03:05:10.844Z,6.15
2023-01-04T03:07:53.248Z,3.58
2023-01-04T03:10:34.335Z,3.75
2023-01-04T03:13:26.970Z,3.88
2023-01-04T03:15:54.695Z,3.50
2023-01-04T03:18:24.225Z,3.28
2023-01-04T03:20:52.466Z,8.05
2023-01-04T03:23:40.021Z,11.50
2023-01-04T03:26:27.703Z,8.13
2023-01-04T03:29:14.421Z,4.45
2023-01-04T03:32:01.766Z,7.32
2023-01-04T03:34:47.599Z,5.32
2023-01-04T03:37:20.337Z,3.95
2023-01-04T03:40:24.068Z,3.83
2023-01-04T03:43:09.056Z,5.43
2023-01-04T03:46:01.295Z,4.03
2023-01-04T03:48:54.183Z,3.90
2023-01-04T03:51:26.787Z,2.50
2023-01-04T03:53:53.153Z,2.30
2023-01-04T03:56:22.408Z,1.80
2023-01-04T03:58:49.915Z,2.58
2023-01-04T04:01:18.511Z,2.60
2023-01-04T04:04:03.791Z,2.72
2023-01-04T04:06:48.958Z,2.25
2023-01-04T04:09:15.399Z,2.78
2023-01-04T04:11:41.938Z,5.38
2023-01-04T04:14:08.432Z,2.88
2023-01-04T04:16:35.018Z,5.90
2023-01-04T04:19:07.969Z,3.58
2023-01-04T04:21:35.260Z,3.85
2023-01-04T04:24:01.760Z,4.80
2023-01-04T04:26:28.371Z,4.60
2023-01-04T04:28:54.807Z,3.53
2023-01-04T04:31:21.251Z,3.97
2023-01-04T04:33:47.735Z,4.45
2023-01-04T04:36:14.181Z,3.13
2023-01-04T04:38:40.664Z,6.05
2023-01-04T04:41:29.266Z,6.50
2023-01-04T04:43:55.663Z,4.57
2023-01-04T04:46:22.218Z,3.70
2023-01-04T04:48:48.914Z,3.93
2023-01-04T04:51:15.398Z,4.10
2023-01-04T04:53:42.016Z,3.87
2023-01-04T04:56:08.518Z,3.80
2023-01-04T04:58:35.269Z,3.87
2023-01-04T05:01:01.731Z,4.00
2023-01-04T05:03:28.466Z,4.43
2023-01-04T05:05:55.178Z,3.70
2023-01-04T05:08:21.624Z,4.97
2023-01-04T05:10:48.108Z,4.00
2023-01-04T05:13:14.530Z,9.67
2023-01-04T05:15:41.978Z,11.13
2023-01-04T05:18:09.188Z,17.60
2023-01-04T05:20:35.923Z,11.47
2023-01-04T05:23:02.435Z,12.77
2023-01-04T05:25:28.819Z,7.00
2023-01-04T05:27:55.210Z,6.37
2023-01-04T05:30:40.484Z,6.03
2023-01-04T05:33:07.724Z,9.10
2023-01-04T05:35:34.557Z,7.37
2023-01-04T05:38:00.994Z,5.83
2023-01-04T05:40:27.419Z,5.10
2023-01-04T05:42:53.864Z,6.33
2023-01-04T05:45:21.201Z,5.40
2023-01-04T05:47:51.008Z,5.73
2023-01-04T05:50:17.889Z,6.30
2023-01-04T05:52:44.304Z,8.00
2023-01-04T05:55:11.183Z,6.90
2023-01-04T05:57:37.658Z,8.97
2023-01-04T06:00:05.412Z,10.10
2023-01-04T06:02:36.093Z,9.70
2023-01-04T06:05:02.633Z,10.20
2023-01-04T06:07:29.690Z,10.73
2023-01-04T06:09:56.572Z,14.37
2023-01-04T06:12:23.031Z,15.97
2023-01-04T06:14:49.530Z,15.10
2023-01-04T06:17:16.050Z,12.23
2023-01-04T06:19:42.712Z,12.67
2023-01-04T06:22:09.397Z,10.77
2023-01-04T06:24:35.918Z,10.90
2023-01-04T06:27:02.754Z,8.90
2023-01-04T06:29:29.182Z,10.53
2023-01-04T06:31:55.809Z,8.77
2023-01-04T06:34:28.523Z,9.07
2023-01-04T06:36:57.106Z,8.70
2023-01-04T06:39:23.517Z,8.83
2023-01-04T06:41:49.910Z,5.50
2023-01-04T06:44:16.312Z,7.93
2023-01-04T06:46:42.853Z,6.23
2023-01-04T06:49:09.597Z,8.13
2023-01-04T06:51:36.159Z,6.23
2023-01-04T06:54:02.659Z,5.53
2023-01-04T06:56:31.011Z,5.33
2023-01-04T06:58:57.621Z,4.10
2023-01-04T07:01:24.147Z,6.70
2023-01-04T07:03:50.770Z,5.30
2023-01-04T07:06:17.400Z,5.57
2023-01-04T07:08:43.898Z,5.17
2023-01-04T07:11:10.314Z,7.13
2023-01-04T07:13:36.856Z,6.57
2023-01-04T07:16:03.402Z,6.27
2023-01-04T07:18:30.076Z,6.50
2023-01-04T07:20:56.663Z,8.43
2023-01-04T07:23:23.181Z,8.03
2023-01-04T07:25:49.691Z,7.50
2023-01-04T07:28:36.112Z,9.73
2023-01-04T07:31:06.921Z,11.97
2023-01-04T07:33:33.559Z,10.52
2023-01-04T07:36:03.744Z,10.93
2023-01-04T07:38:30.265Z,7.30
2023-01-04T07:40:57.255Z,7.93
2023-01-04T07:43:27.884Z,7.83
2023-01-04T07:48:21.711Z,8.67
2023-01-04T07:50:49.039Z,8.13
2023-01-04T07:53:15.485Z,11.27
2023-01-04T07:55:41.956Z,11.98
2023-01-04T07:58:08.507Z,11.88
2023-01-04T08:00:35.134Z,12.30
2023-01-04T08:03:01.616Z,10.77
2023-01-04T08:05:28.156Z,10.10
2023-01-04T08:07:54.592Z,9.83
2023-01-04T08:10:21.116Z,9.97
2023-01-04T08:12:47.620Z,11.53
2023-01-04T08:15:15.304Z,9.97
2023-01-04T08:17:41.768Z,10.10
2023-01-04T08:20:08.301Z,9.48
2023-01-04T08:22:34.859Z,11.05
2023-01-04T08:25:01.243Z,10.13
2023-01-04T08:27:27.698Z,10.40
2023-01-04T08:29:54.162Z,13.25
2023-01-04T08:32:20.543Z,10.85
2023-01-04T08:34:46.952Z,11.25
2023-01-04T08:37:13.486Z,12.27
2023-01-04T08:39:42.958Z,12.73
2023-01-04T08:42:21.967Z,12.30
2023-01-04T08:44:59.173Z,14.98
2023-01-04T08:49:52.446Z,14.00
2023-01-04T08:52:18.961Z,14.40
2023-01-04T08:54:45.385Z,13.18
2023-01-04T08:57:11.913Z,12.30
2023-01-04T08:59:38.437Z,10.93
2023-01-04T09:02:10.337Z,11.05
2023-01-04T09:04:36.970Z,12.60
2023-01-04T09:07:03.803Z,10.73
2023-01-04T09:09:30.492Z,12.23
2023-01-04T09:11:57.086Z,8.25
2023-01-04T09:14:23.582Z,8.45
2023-01-04T09:16:49.956Z,8.13
2023-01-04T09:19:21.632Z,8.40
2023-01-04T09:21:48.470Z,7.68
2023-01-04T09:24:14.922Z,7.60
2023-01-04T09:26:41.410Z,9.30
2023-01-04T09:29:10.115Z,10.20
2023-01-04T09:31:36.547Z,10.05
2023-01-04T09:34:13.955Z,9.63
2023-01-04T09:36:42.249Z,10.23
2023-01-04T09:39:13.256Z,10.18
2023-01-04T09:41:52.880Z,10.27
2023-01-04T09:45:02.960Z,9.10
2023-01-04T09:47:21.942Z,8.80
2023-01-04T09:49:51.480Z,9.57
2023-01-04T09:52:24.127Z,9.75
2023-01-04T09:54:50.649Z,9.55
2023-01-04T09:57:21.285Z,9.15
2023-01-04T09:59:49.202Z,7.63
2023-01-04T10:02:21.683Z,9.05
2023-01-04T10:04:49.553Z,8.05
2023-01-04T10:07:29.449Z,8.70
2023-01-04T10:09:56.614Z,7.95
2023-01-04T10:12:41.809Z,9.23
2023-01-04T10:15:15.366Z,8.52
2023-01-04T10:23:38.017Z,8.82
2023-01-04T10:26:20.663Z,8.82
2023-01-04T10:28:47.035Z,7.10
2023-01-04T10:31:40.347Z,9.30
2023-01-04T10:34:20.330Z,6.15
2023-01-04T10:36:47.557Z,7.68
2023-01-04T10:39:16.415Z,4.57
2023-01-04T10:41:49.053Z,5.65
2023-01-04T10:44:17.552Z,6.43
2023-01-04T10:46:51.743Z,5.10
2023-01-04T10:49:36.956Z,4.03
2023-01-04T10:52:10.090Z,4.78
2023-01-04T10:54:42.153Z,7.72
2023-01-04T10:57:28.993Z,4.47
2023-01-04T11:00:12.236Z,4.40
2023-01-04T11:02:45.950Z,4.97
2023-01-04T11:05:39.048Z,4.43
2023-01-04T11:08:23.473Z,3.88
2023-01-04T11:10:52.406Z,4.15
2023-01-04T11:13:18.906Z,3.28
2023-01-04T11:15:45.582Z,4.10
2023-01-04T11:18:14.054Z,6.05
2023-01-04T11:20:40.860Z,4.90
2023-01-04T11:23:13.340Z,4.82
2023-01-04T11:25:42.899Z,3.17
2023-01-04T11:28:16.048Z,3.40
2023-01-04T11:30:48.371Z,2.97
2023-01-04T11:33:17.038Z,3.08
2023-01-04T11:35:43.544Z,3.60
2023-01-04T11:38:17.555Z,4.15
2023-01-04T11:40:58.983Z,4.75
2023-01-04T11:45:56.578Z,5.75
2023-01-04T11:50:51.438Z,5.22
2023-01-04T11:53:27.222Z,6.00
2023-01-04T11:56:08.228Z,6.40
2023-01-04T11:58:34.655Z,5.28
2023-01-04T12:01:01.251Z,5.50
2023-01-04T12:03:34.561Z,4.55
2023-01-04T12:06:01.048Z,4.82
2023-01-04T12:08:32.171Z,5.22
2023-01-04T12:10:59.694Z,5.03
2023-01-04T12:13:26.491Z,4.90
2023-01-04T12:16:08.350Z,5.43
2023-01-04T12:18:37.562Z,5.57
2023-01-04T12:21:04.164Z,5.28
2023-01-04T12:23:30.863Z,6.47
2023-01-04T12:25:57.400Z,8.38
2023-01-04T12:28:36.248Z,7.07
2023-01-04T12:31:35.340Z,6.53
2023-01-04T12:34:13.724Z,16.70
2023-01-04T12:36:40.162Z,7.00
2023-01-04T12:39:12.539Z,5.82
2023-01-04T12:41:38.921Z,13.30
2023-01-04T12:44:23.981Z,6.00
2023-01-04T12:47:12.025Z,8.80
2023-01-04T12:49:41.479Z,7.13
2023-01-04T12:54:58.679Z,7.28
2023-01-04T12:57:29.419Z,6.68
2023-01-04T12:59:59.847Z,8.63
2023-01-04T13:02:36.641Z,6.45
2023-01-04T13:05:55.021Z,6.32
2023-01-04T13:08:11.367Z,4.45
2023-01-04T13:10:47.712Z,7.47
2023-01-04T13:13:16.860Z,4.43
2023-01-04T13:15:43.244Z,4.65
2023-01-04T13:18:21.836Z,3.67
2023-01-04T13:20:48.472Z,4.20
2023-01-04T13:23:15.000Z,4.45
2023-01-04T13:25:41.500Z,4.97
2023-01-04T13:28:17.408Z,4.70
2023-01-04T13:30:44.023Z,7.00
2023-01-04T13:33:27.756Z,6.40
2023-01-04T13:36:00.508Z,7.10
2023-01-04T13:38:27.099Z,5.05
2023-01-04T13:40:53.540Z,8.45
2023-01-04T13:43:38.871Z,6.43
2023-01-04T13:46:19.619Z,4.88
2023-01-04T13:48:47.899Z,5.60
2023-01-04T13:51:14.524Z,5.05
2023-01-04T13:53:40.999Z,4.57
2023-01-04T13:56:17.316Z,5.53
2023-01-04T13:58:43.873Z,4.60
2023-01-04T14:01:17.306Z,4.63
2023-01-04T14:04:10.417Z,4.60
2023-01-04T14:06:48.166Z,4.43
2023-01-04T14:09:16.762Z,4.70
2023-01-04T14:12:06.043Z,4.47
2023-01-04T14:14:55.658Z,4.78
2023-01-04T14:17:24.392Z,5.43
2023-01-04T14:19:53.152Z,5.60
2023-01-04T14:22:34.555Z,4.03
2023-01-04T14:27:37.406Z,3.42
2023-01-04T14:30:19.320Z,4.28
2023-01-04T14:32:59.537Z,5.50
2023-01-04T14:35:26.605Z,3.83
2023-01-04T14:37:53.081Z,4.13
2023-01-04T14:40:27.377Z,3.25
2023-01-04T14:42:54.384Z,4.18
2023-01-04T14:45:20.810Z,4.10
2023-01-04T14:47:47.460Z,5.57
2023-01-04T14:50:14.153Z,5.55
2023-01-04T14:52:40.606Z,4.45
2023-01-04T14:55:07.437Z,4.47
2023-01-04T14:57:35.742Z,4.53
2023-01-04T15:00:02.275Z,4.68
2023-01-04T15:02:38.416Z,3.38
2023-01-04T15:05:05.244Z,4.10
2023-01-04T15:07:36.334Z,4.03
2023-01-04T15:10:04.132Z,3.38
2023-01-04T15:12:30.558Z,8.40
2023-01-04T15:14:57.019Z,4.05
2023-01-04T15:17:23.471Z,4.90
2023-01-04T15:19:49.853Z,4.82
2023-01-04T15:22:16.248Z,5.03
2023-01-04T15:24:42.793Z,4.55
2023-01-04T15:27:09.319Z,6.60
2023-01-04T15:29:35.776Z,5.93
2023-01-04T15:32:02.292Z,5.93
2023-01-04T15:34:28.764Z,4.30
2023-01-04T15:36:55.174Z,4.38
2023-01-04T15:39:21.657Z,6.38
2023-01-04T15:42:06.822Z,5.70
2023-01-04T15:44:33.320Z,3.17
2023-01-04T15:46:59.978Z,3.90
2023-01-04T15:49:28.451Z,3.28
2023-01-04T15:51:54.876Z,3.47
2023-01-04T15:54:21.948Z,5.28
2023-01-04T15:56:48.707Z,4.53
2023-01-04T15:59:15.122Z,4.43
2023-01-04T16:01:43.205Z,3.72
2023-01-04T16:04:11.592Z,3.10
2023-01-04T16:06:38.559Z,5.18
2023-01-04T16:09:05.583Z,4.13
2023-01-04T16:11:32.265Z,5.80
2023-01-04T16:13:58.704Z,3.17
2023-01-04T16:16:27.646Z,3.42
2023-01-04T16:18:55.323Z,5.78
2023-01-04T16:21:23.609Z,3.20
2023-01-04T16:23:50.981Z,2.97
2023-01-04T16:26:17.468Z,3.03
2023-01-04T16:28:43.880Z,8.35
2023-01-04T16:31:10.285Z,2.47
2023-01-04T16:33:36.766Z,6.78
2023-01-04T16:36:05.285Z,9.30
2023-01-04T16:38:31.894Z,6.22
2023-01-04T16:40:59.245Z,4.32
2023-01-04T16:43:26.132Z,3.80
2023-01-04T16:46:12.855Z,2.70
2023-01-04T16:48:46.651Z,3.22
2023-01-04T16:51:13.128Z,3.95
2023-01-04T16:53:39.663Z,3.80
2023-01-04T16:56:07.304Z,4.60
2023-01-04T16:58:33.924Z,5.60
2023-01-04T17:01:07.400Z,3.85
2023-01-04T17:03:34.046Z,3.17
2023-01-04T17:06:00.476Z,3.45
2023-01-04T17:08:27.318Z,3.58
2023-01-04T17:10:53.964Z,4.25
2023-01-04T17:13:20.469Z,5.95
2023-01-04T17:15:46.931Z,4.30
2023-01-04T17:18:15.222Z,8.73
2023-01-04T17:20:41.799Z,5.15
2023-01-04T17:23:08.497Z,4.50
2023-01-04T17:25:35.140Z,3.92
2023-01-04T17:28:01.741Z,3.83
2023-01-04T17:30:28.302Z,4.63
2023-01-04T17:32:54.837Z,2.95
2023-01-04T17:35:21.361Z,3.38
2023-01-04T17:37:47.783Z,3.20
2023-01-04T17:40:17.651Z,4.32
2023-01-04T17:42:48.927Z,2.63
2023-01-04T17:45:15.404Z,2.50
2023-01-04T17:47:41.953Z,4.68
2023-01-04T17:50:08.552Z,10.48
2023-01-04T17:52:34.985Z,4.30
2023-01-04T17:55:01.483Z,3.58
2023-01-04T17:57:32.824Z,4.28
2023-01-04T18:02:25.949Z,3.80
2023-01-04T18:04:52.906Z,11.30
2023-01-04T18:07:24.899Z,9.80
2023-01-04T18:09:51.928Z,7.00
2023-01-04T18:12:18.576Z,7.07
2023-01-04T18:14:45.469Z,5.55
2023-01-04T18:17:12.009Z,4.63
2023-01-04T18:19:40.290Z,4.55
2023-01-04T18:22:08.136Z,4.55
2023-01-04T18:24:36.765Z,4.47
2023-01-04T18:27:21.976Z,4.63
2023-01-04T18:29:50.597Z,6.00
2023-01-04T18:32:17.224Z,6.68
2023-01-04T18:34:43.894Z,6.30
2023-01-04T18:37:10.490Z,6.53
2023-01-04T18:39:36.941Z,5.22
2023-01-04T18:42:03.481Z,5.53
2023-01-04T18:44:34.796Z,4.30
2023-01-04T18:47:04.637Z,6.20
2023-01-04T18:49:31.224Z,5.85
2023-01-04T18:51:57.787Z,6.78
2023-01-04T18:54:24.409Z,4.38
2023-01-04T18:56:57.001Z,4.18
2023-01-04T18:59:27.222Z,5.97
2023-01-04T19:01:53.918Z,6.75
2023-01-04T19:04:20.464Z,4.00
2023-01-04T19:06:46.887Z,3.83
2023-01-04T19:09:13.402Z,2.30
2023-01-04T19:11:39.900Z,2.63
2023-01-04T19:14:06.483Z,1.40
2023-01-04T19:16:32.953Z,2.13
2023-01-04T19:19:00.123Z,3.15
2023-01-04T19:21:27.224Z,1.88
2023-01-04T19:23:54.009Z,9.57
2023-01-04T19:26:21.046Z,3.30
2023-01-04T19:28:47.685Z,3.72
2023-01-04T19:31:14.768Z,3.40
2023-01-04T19:33:41.594Z,5.55
2023-01-04T19:36:10.471Z,4.03
2023-01-04T19:38:37.381Z,3.22
2023-01-04T19:41:04.927Z,3.42
2023-01-04T19:43:31.441Z,3.72
2023-01-04T19:45:58.022Z,5.57
2023-01-04T19:48:24.681Z,4.60
2023-01-04T19:51:03.187Z,4.75
2023-01-04T19:53:29.720Z,5.20
2023-01-04T19:55:56.414Z,3.55
2023-01-04T19:58:22.870Z,3.60
2023-01-04T20:00:54.489Z,2.42
2023-01-04T20:03:22.539Z,3.25
2023-01-04T20:05:49.529Z,3.03
2023-01-04T20:08:15.989Z,2.50
2023-01-04T20:10:42.490Z,1.45
2023-01-04T20:13:09.002Z,1.15
2023-01-04T20:15:39.293Z,1.33
2023-01-04T20:18:11.805Z,2.50
2023-01-04T20:20:46.703Z,2.85
2023-01-04T20:23:14.076Z,4.00
2023-01-04T20:25:42.167Z,18.52
2023-01-04T20:28:08.683Z,14.90
2023-01-04T20:30:35.164Z,4.13
2023-01-04T20:33:01.718Z,1.13
2023-01-04T20:35:28.365Z,1.77
2023-01-04T20:37:56.864Z,0.73
2023-01-04T20:40:23.951Z,1.02
2023-01-04T20:43:09.120Z,1.27
2023-01-04T20:45:40.774Z,1.05
2023-01-04T20:48:07.284Z,2.28
2023-01-04T20:50:33.932Z,3.88
2023-01-04T20:53:00.492Z,0.90
2023-01-04T20:55:27.031Z,1.60
2023-01-04T20:57:53.542Z,1.73
2023-01-04T21:00:20.198Z,0.80
2023-01-04T21:02:46.942Z,0.85
2023-01-04T21:05:13.912Z,1.00
2023-01-04T21:07:40.483Z,3.38
2023-01-04T21:10:07.250Z,2.60
2023-01-04T21:12:33.813Z,0.90
2023-01-04T21:15:00.272Z,1.52
2023-01-04T21:17:26.735Z,1.45
2023-01-04T21:19:53.178Z,1.98
2023-01-04T21:22:22.321Z,1.98
2023-01-04T21:24:48.734Z,2.55
2023-01-04T21:27:15.231Z,3.65
2023-01-04T21:29:41.791Z,1.40
2023-01-04T21:32:08.224Z,1.70
2023-01-04T21:34:34.643Z,1.83
2023-01-04T21:37:01.166Z,1.55
2023-01-04T21:39:27.656Z,1.70
2023-01-04T21:41:54.224Z,1.60
2023-01-04T21:44:20.706Z,2.95
2023-01-04T21:46:47.731Z,2.13
2023-01-04T21:49:14.310Z,3.25
2023-01-04T21:51:40.832Z,2.25
2023-01-04T21:54:07.391Z,2.13
2023-01-04T21:56:33.853Z,2.55
2023-01-04T21:59:00.353Z,2.45
2023-01-04T22:01:34.222Z,1.80
2023-01-04T22:04:01.710Z,4.60
2023-01-04T22:06:28.294Z,3.78
2023-01-04T22:08:55.084Z,3.17
2023-01-04T22:11:21.591Z,2.88
2023-01-04T22:13:50.194Z,22.08
2023-01-04T22:16:17.084Z,23.55
2023-01-04T22:18:48.178Z,12.25
2023-01-04T22:21:15.621Z,2.70
2023-01-04T22:23:42.074Z,1.77
2023-01-04T22:26:08.862Z,1.65
2023-01-04T22:28:37.246Z,2.58
2023-01-04T22:31:05.843Z,3.88
2023-01-04T22:33:33.029Z,2.83
2023-01-04T22:36:05.870Z,1.30
2023-01-04T22:38:33.559Z,1.35
2023-01-04T22:40:59.995Z,1.77
2023-01-04T22:43:26.396Z,2.75
2023-01-04T22:45:58.811Z,1.90
2023-01-04T22:48:25.275Z,2.42
2023-01-04T22:50:51.688Z,1.80
2023-01-04T22:53:18.123Z,2.10
2023-01-04T22:56:17.697Z,7.03
2023-01-04T22:58:30.988Z,2.13
2023-01-04T23:00:57.532Z,1.45
2023-01-04T23:03:24.000Z,1.58
2023-01-04T23:05:50.649Z,0.95
2023-01-04T23:08:17.083Z,3.08
2023-01-04T23:10:43.618Z,1.88
2023-01-04T23:13:10.070Z,1.48
2023-01-04T23:15:37.288Z,1.95
2023-01-04T23:18:04.059Z,3.10
2023-01-04T23:20:30.533Z,2.38
2023-01-04T23:22:57.104Z,2.28
2023-01-04T23:25:23.810Z,2.80
2023-01-04T23:27:50.413Z,2.42
2023-01-04T23:30:17.287Z,2.75
2023-01-04T23:32:44.138Z,2.05
2023-01-04T23:35:10.852Z,2.63
2023-01-04T23:37:37.603Z,2.45
2023-01-04T23:40:04.557Z,2.03
2023-01-04T23:42:31.047Z,1.42
2023-01-04T23:44:57.509Z,3.03
2023-01-04T23:47:23.930Z,3.05
2023-01-04T23:49:50.386Z,2.83
2023-01-04T23:52:16.869Z,2.92
2023-01-04T23:54:43.373Z,3.22
2023-01-04T23:57:09.817Z,3.65
2023-01-04T23:59:36.487Z,2.42
